createdAt,value
2023-01-17T00:00:12.908Z,4
2023-01-17T00:03:12.719Z,4
2023-01-17T00:06:12.385Z,4
2023-01-17T00:09:12.397Z,4
2023-01-17T00:12:12.472Z,4
2023-01-17T00:15:12.627Z,4
2023-01-17T00:18:12.418Z,4
2023-01-17T00:21:12.359Z,4
2023-01-17T00:24:12.466Z,4
2023-01-17T00:27:12.471Z,4
2023-01-17T00:30:12.420Z,4
2023-01-17T00:33:12.378Z,4
2023-01-17T00:36:12.725Z,4
2023-01-17T00:39:12.431Z,4
2023-01-17T00:42:12.430Z,4
2023-01-17T00:45:12.303Z,4
2023-01-17T00:48:12.684Z,4.1
2023-01-17T00:51:12.454Z,4.1
2023-01-17T00:54:12.485Z,4.1
2023-01-17T00:57:12.526Z,4.1
2023-01-17T01:00:12.695Z,4.1
2023-01-17T01:03:12.468Z,4.1
2023-01-17T01:06:12.581Z,4.1
2023-01-17T01:09:12.410Z,4.1
2023-01-17T01:12:12.454Z,4.1
2023-01-17T01:15:12.388Z,4.1
2023-01-17T01:18:12.408Z,4
2023-01-17T01:21:12.444Z,4
2023-01-17T01:24:12.503Z,3.9
2023-01-17T01:27:12.306Z,3.7
2023-01-17T01:30:12.619Z,3.7
2023-01-17T01:33:12.450Z,3.6
2023-01-17T01:36:12.549Z,3.6
2023-01-17T01:39:12.512Z,3.6
2023-01-17T01:42:12.340Z,3.5
2023-01-17T01:45:12.640Z,3.6
2023-01-17T01:48:12.366Z,3.6
2023-01-17T01:51:12.398Z,3.6
2023-01-17T01:54:12.455Z,3.6
2023-01-17T01:57:12.431Z,3.5
2023-01-17T02:00:12.428Z,3.6
2023-01-17T02:03:12.386Z,3.6
2023-01-17T02:06:12.444Z,3.7
2023-01-17T02:09:12.495Z,3.7
2023-01-17T02:12:12.395Z,3.7
2023-01-17T02:15:12.610Z,3.9
2023-01-17T02:18:12.405Z,3.7
2023-01-17T02:21:12.525Z,3.7
2023-01-17T02:24:12.452Z,3.7
2023-01-17T02:27:12.477Z,3.7
2023-01-17T02:30:12.846Z,3.7
2023-01-17T02:33:12.481Z,3.6
2023-01-17T02:36:13.132Z,3.6
2023-01-17T02:39:12.393Z,3.6
2023-01-17T02:42:12.451Z,3.6
2023-01-17T02:45:12.575Z,3.6
2023-01-17T02:48:12.677Z,3.5
2023-01-17T02:51:12.393Z,3.5
2023-01-17T02:54:12.585Z,3.5
2023-01-17T02:57:12.613Z,3.5
2023-01-17T03:00:12.496Z,3.5
2023-01-17T03:03:12.393Z,3.5
2023-01-17T03:06:12.445Z,3.5
2023-01-17T03:09:13.140Z,3.5
2023-01-17T03:12:12.453Z,3.5
2023-01-17T03:15:12.567Z,3.5
2023-01-17T03:18:12.406Z,3.5
2023-01-17T03:21:12.405Z,3.5
2023-01-17T03:24:12.498Z,3.5
2023-01-17T03:27:12.491Z,3.5
2023-01-17T03:30:12.614Z,3.5
2023-01-17T03:33:12.407Z,3.4
2023-01-17T03:36:12.372Z,3.5
2023-01-17T03:39:12.423Z,3.4
2023-01-17T03:42:12.487Z,3.4
2023-01-17T03:45:12.531Z,3.5
2023-01-17T03:48:12.450Z,3.4
2023-01-17T03:51:12.428Z,3.5
2023-01-17T03:54:12.616Z,3.4
2023-01-17T03:57:12.390Z,3.4
2023-01-17T04:00:12.554Z,3.5
2023-01-17T04:03:12.469Z,3.5
2023-01-17T04:06:12.891Z,3.5
2023-01-17T04:09:12.624Z,3.5
2023-01-17T04:12:12.618Z,3.5
2023-01-17T04:15:12.605Z,3.4
2023-01-17T04:18:12.460Z,3.4
2023-01-17T04:21:12.396Z,3.2
2023-01-17T04:24:12.612Z,3.1
2023-01-17T04:27:12.486Z,3.1
2023-01-17T04:30:12.429Z,3
2023-01-17T04:33:12.680Z,3
2023-01-17T04:36:12.392Z,3
2023-01-17T04:39:12.648Z,3.1
2023-01-17T04:42:12.510Z,3.1
2023-01-17T04:45:12.517Z,3.1
2023-01-17T04:48:12.431Z,3.2
2023-01-17T04:51:12.325Z,3.2
2023-01-17T04:54:12.502Z,3.2
2023-01-17T04:57:12.436Z,3.2
2023-01-17T05:00:12.621Z,3.1
2023-01-17T05:03:12.482Z,3.1
2023-01-17T05:06:12.405Z,3
2023-01-17T05:09:12.602Z,3
2023-01-17T05:12:12.477Z,3
2023-01-17T05:15:12.605Z,3
2023-01-17T05:18:12.655Z,3
2023-01-17T05:21:12.459Z,3
2023-01-17T05:24:12.393Z,3
2023-01-17T05:27:12.573Z,3
2023-01-17T05:30:12.378Z,3.1
2023-01-17T05:33:12.527Z,3.1
2023-01-17T05:36:12.422Z,3.1
2023-01-17T05:39:12.530Z,3.1
2023-01-17T05:42:12.437Z,3.2
2023-01-17T05:45:12.431Z,3.2
2023-01-17T05:48:12.643Z,3.2
2023-01-17T05:51:12.495Z,3.2
2023-01-17T05:54:12.674Z,3.4
2023-01-17T05:57:12.350Z,3.4
2023-01-17T06:00:12.459Z,3.4
2023-01-17T06:03:12.603Z,3.4
2023-01-17T06:06:12.450Z,3.4
2023-01-17T06:09:12.573Z,3.4
2023-01-17T06:12:12.419Z,3.4
2023-01-17T06:15:12.393Z,3.2
2023-01-17T06:18:12.535Z,3.2
2023-01-17T06:21:12.361Z,3.2
2023-01-17T06:24:15.426Z,3.2
2023-01-17T06:27:12.483Z,3.2
2023-01-17T06:30:12.649Z,3.2
2023-01-17T06:33:12.401Z,3.2
2023-01-17T06:36:12.561Z,3.2
2023-01-17T06:39:14.893Z,3.1
2023-01-17T06:42:12.433Z,3.1
2023-01-17T06:45:12.425Z,3
2023-01-17T06:48:12.490Z,3
2023-01-17T06:51:12.538Z,2.9
2023-01-17T06:54:12.413Z,2.7
2023-01-17T06:57:12.598Z,2.7
2023-01-17T07:00:12.703Z,2.6
2023-01-17T07:03:12.507Z,2.6
2023-01-17T07:06:12.355Z,2.5
2023-01-17T07:09:12.356Z,2.5
2023-01-17T07:12:12.384Z,2.4
2023-01-17T07:15:12.579Z,2.4
2023-01-17T07:18:12.431Z,2.2
2023-01-17T07:21:12.430Z,2
2023-01-17T07:24:12.454Z,1.9
2023-01-17T07:27:12.610Z,1.9
2023-01-17T07:30:12.365Z,1.9
2023-01-17T07:33:12.572Z,2
2023-01-17T07:36:12.493Z,2
2023-01-17T07:39:15.053Z,2.1
2023-01-17T07:42:12.405Z,2.1
2023-01-17T07:45:12.704Z,2.1
2023-01-17T07:48:12.429Z,2.2
2023-01-17T07:51:12.573Z,2.2
2023-01-17T07:54:12.554Z,2.4
2023-01-17T07:57:12.699Z,2.4
2023-01-17T08:00:12.604Z,2.5
2023-01-17T08:03:12.587Z,2.5
2023-01-17T08:06:12.589Z,2.5
2023-01-17T08:09:12.713Z,2.7
2023-01-17T08:12:12.529Z,2.9
2023-01-17T08:15:12.556Z,3.1
2023-01-17T08:18:12.526Z,3.4
2023-01-17T08:21:12.381Z,3.5
2023-01-17T08:24:12.594Z,3.4
2023-01-17T08:27:12.438Z,3.2
2023-01-17T08:30:12.490Z,3.1
2023-01-17T08:33:12.562Z,3.1
2023-01-17T08:36:12.497Z,3
2023-01-17T08:39:12.495Z,3
2023-01-17T08:42:12.451Z,3.2
2023-01-17T08:45:12.532Z,3.5
2023-01-17T08:48:12.579Z,3.7
2023-01-17T08:51:12.491Z,4
2023-01-17T08:54:12.985Z,4.2
2023-01-17T08:57:12.586Z,4.6
2023-01-17T09:00:12.518Z,4.9
2023-01-17T09:03:13.484Z,5.2
2023-01-17T09:06:12.524Z,5.4
2023-01-17T09:09:12.548Z,5.4
2023-01-17T09:12:12.745Z,5.5
2023-01-17T09:15:12.434Z,5.9
2023-01-17T09:18:12.614Z,7.1
2023-01-17T09:21:12.528Z,10.1
2023-01-17T09:24:12.542Z,11.1
2023-01-17T09:27:12.604Z,9.3
2023-01-17T09:30:12.660Z,8.5
2023-01-17T09:33:12.447Z,8.3
2023-01-17T09:36:12.500Z,7.9
2023-01-17T09:39:12.691Z,7.9
2023-01-17T09:42:12.552Z,8.3
2023-01-17T09:45:12.755Z,8.6
2023-01-17T09:48:12.508Z,9.5
2023-01-17T09:51:12.423Z,11.9
2023-01-17T09:54:12.385Z,14.1
2023-01-17T09:57:12.459Z,15.9
2023-01-17T10:00:15.424Z,17
2023-01-17T10:03:13.313Z,17.8
2023-01-17T10:06:12.419Z,18.1
2023-01-17T10:09:12.571Z,18.4
2023-01-17T10:12:12.440Z,18.8
2023-01-17T10:15:12.473Z,18.9
2023-01-17T10:18:29.720Z,19
2023-01-17T10:21:12.453Z,19.3
2023-01-17T10:24:12.483Z,18.1
2023-01-17T10:27:12.549Z,17.8
2023-01-17T10:30:12.541Z,17.9
2023-01-17T10:33:12.553Z,18.6
2023-01-17T10:36:12.677Z,17.6
2023-01-17T10:39:12.481Z,18.8
2023-01-17T10:42:12.628Z,19.5
2023-01-17T10:45:12.427Z,18.8
2023-01-17T10:48:12.507Z,19
2023-01-17T10:51:12.621Z,19.8
2023-01-17T10:54:13.409Z,20.3
2023-01-17T10:57:12.474Z,20.3
2023-01-17T11:00:12.621Z,21.1
2023-01-17T11:03:13.098Z,21.2
2023-01-17T11:06:12.486Z,18.4
2023-01-17T11:09:12.433Z,18.5
2023-01-17T11:12:12.525Z,19.9
2023-01-17T11:15:12.489Z,20.4
2023-01-17T11:18:12.448Z,20.4
2023-01-17T11:21:12.552Z,20.8
2023-01-17T11:24:12.522Z,21.1
2023-01-17T11:27:12.493Z,21.4
2023-01-17T11:30:12.496Z,21.6
2023-01-17T11:33:12.403Z,21.8
2023-01-17T11:36:12.535Z,21.9
2023-01-17T11:39:12.420Z,22
2023-01-17T11:42:12.482Z,22
2023-01-17T11:45:12.418Z,22.1
2023-01-17T11:48:12.550Z,22.1
2023-01-17T11:51:12.749Z,22.1
2023-01-17T11:54:12.565Z,22.1
2023-01-17T11:57:12.613Z,21.9
2023-01-17T12:00:12.613Z,22.1
2023-01-17T12:03:12.581Z,22
2023-01-17T12:06:12.621Z,22
2023-01-17T12:09:12.475Z,22
2023-01-17T12:12:15.466Z,21.9
2023-01-17T12:15:12.727Z,21.1
2023-01-17T12:18:12.684Z,16.4
2023-01-17T12:21:12.446Z,13.4
2023-01-17T12:24:12.477Z,11.4
2023-01-17T12:27:12.555Z,11.1
2023-01-17T12:30:13.097Z,9.6
2023-01-17T12:33:12.534Z,8.6
2023-01-17T12:36:12.541Z,7.9
2023-01-17T12:39:12.523Z,7.4
2023-01-17T12:42:12.680Z,7.1
2023-01-17T12:45:12.578Z,6.9
2023-01-17T12:48:12.503Z,6.7
2023-01-17T12:51:12.495Z,6.6
2023-01-17T12:54:12.846Z,6.4
2023-01-17T12:57:14.855Z,6.2
2023-01-17T13:00:12.892Z,6.1
2023-01-17T13:03:12.654Z,6
2023-01-17T13:06:12.513Z,6
2023-01-17T13:09:12.627Z,5.9
2023-01-17T13:12:12.477Z,5.9
2023-01-17T13:15:12.435Z,5.9
2023-01-17T13:18:12.530Z,5.9
2023-01-17T13:21:12.467Z,5.7
2023-01-17T13:24:12.754Z,5.9
2023-01-17T13:27:12.495Z,5.9
2023-01-17T13:30:12.917Z,5.6
2023-01-17T13:33:12.578Z,5.4
2023-01-17T13:36:12.603Z,5.4
2023-01-17T13:39:12.655Z,6
2023-01-17T13:42:12.704Z,6.5
2023-01-17T13:45:12.495Z,6.7
2023-01-17T13:48:12.499Z,6.9
2023-01-17T13:51:12.605Z,6.9
2023-01-17T13:54:14.198Z,8.5
2023-01-17T13:57:12.467Z,12.1
2023-01-17T14:00:12.588Z,14.1
2023-01-17T14:03:12.765Z,15.3
2023-01-17T14:06:12.465Z,15.9
2023-01-17T14:09:12.750Z,16.3
2023-01-17T14:12:12.594Z,16.3
2023-01-17T14:15:12.587Z,16.3
2023-01-17T14:18:12.462Z,16.3
2023-01-17T14:21:12.389Z,16.1
2023-01-17T14:24:12.866Z,16
2023-01-17T14:27:12.466Z,15.8
2023-01-17T14:30:13.880Z,15.5
2023-01-17T14:33:13.549Z,15
2023-01-17T14:36:12.511Z,14.6
2023-01-17T14:39:13.920Z,14.5
2023-01-17T14:42:12.480Z,14.4
2023-01-17T14:45:12.486Z,14.1
2023-01-17T14:48:12.517Z,13.6
2023-01-17T14:51:12.517Z,12.9
2023-01-17T14:54:12.510Z,11.3
2023-01-17T14:57:12.501Z,8.8
2023-01-17T15:00:12.778Z,7.2
2023-01-17T15:03:12.811Z,6.2
2023-01-17T15:06:16.007Z,5.4
2023-01-17T15:09:12.549Z,4.7
2023-01-17T15:12:12.474Z,4.1
2023-01-17T15:15:12.638Z,3.6
2023-01-17T15:18:12.471Z,3.2
2023-01-17T15:21:12.507Z,2.9
2023-01-17T15:24:12.545Z,2.6
2023-01-17T15:27:12.419Z,2.2
2023-01-17T15:30:12.608Z,2
2023-01-17T15:33:12.487Z,1.9
2023-01-17T15:36:12.362Z,1.6
2023-01-17T15:39:12.452Z,1.4
2023-01-17T15:42:12.446Z,1.1
2023-01-17T15:45:12.605Z,1
2023-01-17T15:48:12.521Z,0.8
2023-01-17T15:51:12.383Z,0.5
2023-01-17T15:54:12.356Z,0.3
2023-01-17T15:57:12.391Z,0.1
2023-01-17T16:00:12.655Z,-0.1
2023-01-17T16:03:12.672Z,-0.3
2023-01-17T16:06:12.359Z,-0.5
2023-01-17T16:09:12.405Z,-0.6
2023-01-17T16:12:12.344Z,-0.9
2023-01-17T16:15:27.213Z,-1.1
2023-01-17T16:18:12.353Z,-1.3
2023-01-17T16:21:12.531Z,-1.5
2023-01-17T16:24:12.354Z,-1.5
2023-01-17T16:27:12.407Z,-1.5
2023-01-17T16:30:12.633Z,0.4
2023-01-17T16:33:12.323Z,0.4
2023-01-17T16:36:12.460Z,-1.5
2023-01-17T16:39:12.346Z,-1.5
2023-01-17T16:42:12.424Z,-1.5
2023-01-17T16:45:12.359Z,-1.5
2023-01-17T16:48:12.379Z,0.4
2023-01-17T16:51:12.434Z,0.4
2023-01-17T16:54:12.350Z,0.2
2023-01-17T16:57:12.350Z,0.2
2023-01-17T17:00:12.451Z,0.1
2023-01-17T17:03:12.529Z,0.1
2023-01-17T17:06:12.446Z,0.1
2023-01-17T17:09:12.570Z,0.1
2023-01-17T17:12:12.512Z,0.2
2023-01-17T17:15:12.373Z,0.2
2023-01-17T17:18:12.427Z,0.2
2023-01-17T17:21:12.398Z,0.2
2023-01-17T17:24:12.353Z,0.2
2023-01-17T17:27:12.401Z,0.2
2023-01-17T17:30:12.593Z,0.2
2023-01-17T17:33:12.439Z,0.1
2023-01-17T17:36:12.602Z,-0.1
2023-01-17T17:39:12.387Z,-0.3
2023-01-17T17:42:12.378Z,-0.4
2023-01-17T17:45:12.529Z,-0.6
2023-01-17T17:48:12.459Z,-0.8
2023-01-17T17:51:12.373Z,-0.9
2023-01-17T17:54:12.493Z,-1
2023-01-17T17:57:12.365Z,-1.1
2023-01-17T18:00:12.503Z,-1.3
2023-01-17T18:03:12.379Z,-1.3
2023-01-17T18:06:12.460Z,-1.3
2023-01-17T18:09:12.463Z,-1.3
2023-01-17T18:12:12.419Z,-1.1
2023-01-17T18:15:12.416Z,-1.1
2023-01-17T18:18:12.373Z,-1.1
2023-01-17T18:21:12.467Z,-1.3
2023-01-17T18:24:12.514Z,-1.3
2023-01-17T18:27:12.500Z,-1.4
2023-01-17T18:30:12.473Z,-1.4
2023-01-17T18:33:12.432Z,-1.5
2023-01-17T18:36:15.937Z,-1.5
2023-01-17T18:39:12.455Z,-1.6
2023-01-17T18:42:12.513Z,-1.6
2023-01-17T18:45:12.380Z,-1.6
2023-01-17T18:48:12.410Z,-1.8
2023-01-17T18:51:12.444Z,-1.8
2023-01-17T18:54:14.861Z,-1.8
2023-01-17T18:57:12.618Z,-1.8
2023-01-17T19:00:12.555Z,-1.8
2023-01-17T19:03:12.308Z,-1.6
2023-01-17T19:06:12.494Z,-1.6
2023-01-17T19:09:12.480Z,-1.6
2023-01-17T19:12:12.537Z,-1.6
2023-01-17T19:15:12.420Z,-1.6
2023-01-17T19:18:12.384Z,-1.6
2023-01-17T19:21:12.385Z,-1.6
2023-01-17T19:24:12.361Z,-1.6
2023-01-17T19:27:12.684Z,-1.8
2023-01-17T19:30:12.545Z,-1.8
2023-01-17T19:33:12.428Z,-1.9
2023-01-17T19:36:12.435Z,-1.8
2023-01-17T19:39:17.573Z,-1.3
2023-01-17T19:42:12.356Z,-1
2023-01-17T19:45:12.449Z,-1
2023-01-17T19:48:12.486Z,-1.1
2023-01-17T19:51:12.335Z,-1.4
2023-01-17T19:54:13.347Z,-1.5
2023-01-17T19:57:12.381Z,-1.6
2023-01-17T20:00:12.409Z,-1.6
2023-01-17T20:03:12.623Z,-1.6
2023-01-17T20:06:12.379Z,-1.6
2023-01-17T20:09:12.474Z,-1.5
2023-01-17T20:12:12.463Z,-1.4
2023-01-17T20:15:12.434Z,-1.4
2023-01-17T20:18:12.372Z,-1.4
2023-01-17T20:21:12.490Z,-1.4
2023-01-17T20:24:12.400Z,-1.4
2023-01-17T20:27:12.468Z,-1.4
2023-01-17T20:30:31.531Z,-1.5
2023-01-17T20:33:12.506Z,-1.6
2023-01-17T20:36:22.427Z,-1.8
2023-01-17T20:39:12.553Z,-1.9
2023-01-17T20:42:12.363Z,-2
2023-01-17T20:45:12.435Z,-2
2023-01-17T20:48:12.602Z,-2.1
2023-01-17T20:51:12.423Z,-2.1
2023-01-17T20:54:12.400Z,-2.3
2023-01-17T20:57:12.943Z,-2.3
2023-01-17T21:00:12.515Z,-2.3
2023-01-17T21:03:12.576Z,-2.3
2023-01-17T21:06:12.575Z,-2.3
2023-01-17T21:09:12.378Z,-2.3
2023-01-17T21:12:12.624Z,-2.4
2023-01-17T21:15:12.550Z,-2.3
2023-01-17T21:18:12.410Z,-2.3
2023-01-17T21:21:12.394Z,-2.1
2023-01-17T21:24:12.513Z,-2.1
2023-01-17T21:27:12.366Z,-2.1
2023-01-17T21:30:12.406Z,-2.1
2023-01-17T21:33:12.472Z,-2.1
2023-01-17T21:36:12.446Z,-2.1
2023-01-17T21:39:12.328Z,-2.1
2023-01-17T21:42:12.437Z,-2.1
2023-01-17T21:45:12.799Z,-2.1
2023-01-17T21:48:12.444Z,-2.1
2023-01-17T21:51:12.740Z,-2.1
2023-01-17T21:54:12.494Z,-2.1
2023-01-17T21:57:12.413Z,-2
2023-01-17T22:00:12.841Z,-2
2023-01-17T22:03:12.453Z,-2
2023-01-17T22:06:12.491Z,-1.9
2023-01-17T22:09:12.396Z,-1.9
2023-01-17T22:12:12.412Z,-1.9
2023-01-17T22:15:12.454Z,-1.8
2023-01-17T22:18:12.425Z,-1.8
2023-01-17T22:21:12.448Z,-1.6
2023-01-17T22:24:12.472Z,-1.5
2023-01-17T22:27:12.410Z,-1.6
2023-01-17T22:30:12.562Z,-1.6
2023-01-17T22:33:12.503Z,-1.6
2023-01-17T22:36:12.423Z,-1.6
2023-01-17T22:39:12.439Z,-1.6
2023-01-17T22:42:12.383Z,-1.5
2023-01-17T22:45:12.389Z,-1.5
2023-01-17T22:48:12.423Z,-1.5
2023-01-17T22:51:13.669Z,-1.5
2023-01-17T22:54:12.498Z,-1.6
2023-01-17T22:57:12.458Z,-1.6
2023-01-17T23:00:12.658Z,-1.8
2023-01-17T23:03:13.460Z,-1.8
2023-01-17T23:06:12.306Z,-1.8
2023-01-17T23:09:12.556Z,-1.8
2023-01-17T23:12:12.362Z,-1.9
2023-01-17T23:15:12.415Z,-1.8
2023-01-17T23:18:12.416Z,-1.8
2023-01-17T23:21:12.424Z,-2
2023-01-17T23:24:12.427Z,-2.1
2023-01-17T23:27:12.371Z,-2.3
2023-01-17T23:30:12.580Z,-2.6
2023-01-17T23:33:12.487Z,-2.8
2023-01-17T23:36:12.429Z,-2.9
2023-01-17T23:39:12.364Z,-3
2023-01-17T23:42:12.353Z,-3.1
2023-01-17T23:45:12.377Z,-3.3
2023-01-17T23:48:12.410Z,-3.3
2023-01-17T23:51:12.512Z,-3.4
2023-01-17T23:54:12.488Z,-3.5
2023-01-17T23:57:12.372Z,-3.6
